Weather at First Flight Airport

Public forecast

Using degrees Fahrenheit for public forecast. Weather courtesy of forecast.io.

Current aviation weather report (METAR) for First Flight Airport

Report is more than 6 hours old.

2022/11/14 15:35 (retrieved 2 years ago)

KFFA 141535Z AUTO 03006G14KT 10SM BKN036 10/01 A3035 RMK AO2 T01020014

Closest aviation forecast (TAF) to First Flight Airport

Forecast is more than 12 hours old.

Closest forecast is Elizabeth City Regional Airport & Coast Guard Air Station, 28.4 nm (52.6 km) WNW.

2023/02/22 18:42 (retrieved 1 year ago)

TAF TAF KECG 221739Z 2218/2318 13010KT P6SM SCT060 FM222200 18010KT P6SM SCT250 FM230400 21012G20KT P6SM SCT250 FM231500 24015G25KT P6SM SCT100